Time;durP1;ratioP1;P1;durP2;ratioP2;P2;SDS_P1;SDS_P2;PMS_P1;PMS_P2;Temp;Humidity;BMP_temperature;BMP_pressure;BME280_temperature;BME280_humidity;BME280_pressure;Samples;Min_cycle;Max_cycle;Signal;HPM_P1;HPM_P2
2021/12/03 00:02:10;;;;;;;4.65;3.00;;;2.10;99.90;;;;;;5061358;28;20029;-79
2021/12/03 00:04:36;;;;;;;5.18;3.10;;;2.10;99.90;;;;;;5064880;28;20075;-77
2021/12/03 00:07:02;;;;;;;4.38;3.30;;;2.00;99.90;;;;;;5064030;28;20028;-79
2021/12/03 00:09:32;;;;;;;5.07;2.97;;;2.00;99.90;;;;;;5064493;28;20047;-79
2021/12/03 00:11:57;;;;;;;5.53;2.95;;;2.00;99.90;;;;;;5061729;28;20025;-79
2021/12/03 00:14:23;;;;;;;5.13;3.15;;;1.90;99.90;;;;;;5061939;28;20057;-78
2021/12/03 00:16:49;;;;;;;7.22;3.55;;;1.90;99.90;;;;;;5063638;28;20021;-78
2021/12/03 00:19:14;;;;;;;5.82;4.03;;;1.90;99.90;;;;;;5066738;28;20040;-79
2021/12/03 00:21:40;;;;;;;5.97;3.30;;;1.90;99.90;;;;;;5066373;28;20033;-79
2021/12/03 00:24:05;;;;;;;5.20;4.15;;;1.90;99.90;;;;;;5068171;28;20037;-77
2021/12/03 00:26:31;;;;;;;3.85;3.33;;;1.90;99.90;;;;;;5050440;28;20021;-79
2021/12/03 00:28:56;;;;;;;4.60;3.72;;;1.90;99.90;;;;;;5063306;28;20037;-79
2021/12/03 00:31:22;;;;;;;5.50;3.92;;;1.90;99.90;;;;;;5059764;28;20036;-80
2021/12/03 00:33:48;;;;;;;4.32;3.92;;;1.80;99.90;;;;;;5041693;28;20021;-79
2021/12/03 00:36:13;;;;;;;14.25;4.85;;;1.90;99.90;;;;;;5041365;28;20056;-78
2021/12/03 00:38:43;;;;;;;4.97;4.45;;;1.90;99.90;;;;;;5064368;28;20017;-79
2021/12/03 00:41:13;;;;;;;4.63;3.92;;;1.90;99.90;;;;;;5061532;28;20017;-79
2021/12/03 00:43:46;;;;;;;5.20;4.03;;;1.90;99.90;;;;;;5041284;28;20544;-78
2021/12/03 00:46:15;;;;;;;4.97;3.42;;;1.90;99.90;;;;;;5062020;28;20039;-79
2021/12/03 00:48:42;;;;;;;4.43;3.92;;;1.80;99.90;;;;;;5061775;28;20033;-79
2021/12/03 00:51:08;;;;;;;7.57;4.70;;;1.80;99.90;;;;;;5043197;28;20044;-79
2021/12/03 00:53:34;;;;;;;7.13;3.80;;;1.80;99.90;;;;;;5059646;28;20025;-78
2021/12/03 00:56:00;;;;;;;6.00;3.65;;;1.80;99.90;;;;;;5059954;28;20025;-79
2021/12/03 00:58:26;;;;;;;5.85;4.75;;;1.80;99.90;;;;;;5069095;28;20032;-78
2021/12/03 01:00:52;;;;;;;7.70;4.45;;;1.80;99.90;;;;;;5071233;28;20120;-78
2021/12/03 01:03:18;;;;;;;4.72;3.97;;;1.70;99.90;;;;;;5061781;28;20099;-78
2021/12/03 01:05:44;;;;;;;6.07;4.75;;;1.80;99.90;;;;;;5061486;28;20029;-78
2021/12/03 01:08:09;;;;;;;5.97;4.53;;;1.80;99.90;;;;;;5058898;28;20025;-77
2021/12/03 01:10:35;;;;;;;6.18;4.38;;;1.70;99.90;;;;;;5044677;28;20105;-78
2021/12/03 01:13:01;;;;;;;8.95;4.82;;;1.70;99.90;;;;;;5063274;28;20029;-79
2021/12/03 01:15:30;;;;;;;6.05;3.83;;;1.70;99.90;;;;;;5060150;28;20029;-78
2021/12/03 01:17:57;;;;;;;6.05;4.68;;;1.60;99.90;;;;;;5060599;28;20029;-78
2021/12/03 01:20:23;;;;;;;4.65;4.15;;;1.70;99.90;;;;;;5064174;28;20035;-79
2021/12/03 01:22:51;;;;;;;6.88;4.70;;;1.70;99.90;;;;;;5064292;28;20025;-78
2021/12/03 01:25:19;;;;;;;6.82;4.45;;;1.80;99.90;;;;;;5046049;28;20021;-78
2021/12/03 01:27:45;;;;;;;6.53;4.40;;;1.80;99.90;;;;;;5064913;28;20392;-80
2021/12/03 01:30:14;;;;;;;6.15;4.90;;;1.80;99.90;;;;;;5063466;28;20130;-78
2021/12/03 01:32:40;;;;;;;8.10;5.28;;;1.80;99.90;;;;;;5064031;28;20021;-79
2021/12/03 01:35:07;;;;;;;5.75;5.15;;;1.80;99.90;;;;;;5063931;28;20500;-79
2021/12/03 01:37:33;;;;;;;6.80;5.10;;;1.90;99.90;;;;;;5066713;28;20065;-79
2021/12/03 01:39:58;;;;;;;8.45;4.72;;;1.90;99.90;;;;;;5069781;28;20029;-77
2021/12/03 01:42:24;;;;;;;6.30;4.68;;;1.80;99.90;;;;;;5069897;28;20465;-77
2021/12/03 01:44:50;;;;;;;6.97;4.72;;;1.80;99.90;;;;;;5070088;28;20025;-78
2021/12/03 01:47:15;;;;;;;6.15;4.72;;;1.80;99.90;;;;;;5063102;28;20025;-77
2021/12/03 01:49:41;;;;;;;6.38;4.68;;;1.70;99.90;;;;;;5061485;28;20018;-78
2021/12/03 01:52:07;;;;;;;5.40;4.13;;;1.70;99.90;;;;;;5060894;28;20425;-79
2021/12/03 01:54:33;;;;;;;13.32;5.18;;;1.70;99.90;;;;;;5062123;28;20086;-80
2021/12/03 01:56:59;;;;;;;9.50;5.63;;;1.60;99.90;;;;;;5065003;28;20435;-77
2021/12/03 01:59:25;;;;;;;9.07;5.53;;;1.60;99.90;;;;;;5067818;28;20109;-79
2021/12/03 02:01:51;;;;;;;6.82;5.22;;;1.60;99.90;;;;;;5053943;28;20067;-78
2021/12/03 02:04:16;;;;;;;6.43;5.22;;;1.50;99.90;;;;;;5072973;28;20048;-78
2021/12/03 02:06:42;;;;;;;7.25;4.85;;;1.50;99.90;;;;;;5052859;28;20021;-78
2021/12/03 02:09:08;;;;;;;6.07;5.05;;;1.40;99.90;;;;;;5047805;28;20029;-78
2021/12/03 02:11:34;;;;;;;6.53;4.88;;;1.40;99.90;;;;;;5068601;28;20128;-78
2021/12/03 02:14:00;;;;;;;8.68;4.90;;;1.40;99.90;;;;;;5076099;28;20115;-78
2021/12/03 02:16:26;;;;;;;7.45;5.10;;;1.40;99.90;;;;;;5079200;28;20037;-78
2021/12/03 02:18:52;;;;;;;7.28;5.10;;;1.40;99.90;;;;;;5079480;28;20017;-79
2021/12/03 02:21:19;;;;;;;5.88;4.82;;;1.40;99.90;;;;;;5079529;28;20040;-78
2021/12/03 02:23:45;;;;;;;7.00;4.97;;;1.40;99.90;;;;;;5073688;28;20079;-78
2021/12/03 02:26:11;;;;;;;8.30;5.38;;;1.40;99.90;;;;;;5065346;28;20064;-78
2021/12/03 02:28:44;;;;;;;5.68;5.00;;;1.40;99.90;;;;;;5065445;28;20057;-77
2021/12/03 02:31:12;;;;;;;6.53;5.47;;;1.40;99.90;;;;;;5063091;28;20024;-79
2021/12/03 02:33:37;;;;;;;7.30;5.53;;;1.40;99.90;;;;;;5062567;28;20036;-78
2021/12/03 02:36:05;;;;;;;7.75;4.75;;;1.30;99.90;;;;;;5065886;28;20009;-79
2021/12/03 02:38:30;;;;;;;6.25;5.47;;;1.30;99.90;;;;;;5068441;28;20029;-80
2021/12/03 02:40:57;;;;;;;8.07;4.53;;;1.40;99.90;;;;;;5065370;28;20035;-79
2021/12/03 02:43:24;;;;;;;7.97;5.57;;;1.30;99.90;;;;;;5049155;28;20112;-77
2021/12/03 02:45:51;;;;;;;5.60;4.68;;;1.30;99.90;;;;;;5064825;28;20036;-78
2021/12/03 02:48:17;;;;;;;8.43;5.25;;;1.30;99.90;;;;;;5061061;28;20039;-78
2021/12/03 02:50:43;;;;;;;10.48;5.28;;;1.30;99.90;;;;;;5064146;28;20051;-78
2021/12/03 02:53:09;;;;;;;6.05;5.43;;;1.20;99.90;;;;;;5063013;28;20520;-79
2021/12/03 02:55:35;;;;;;;6.55;5.20;;;1.30;99.90;;;;;;5062648;28;20108;-78
2021/12/03 02:58:00;;;;;;;11.57;6.25;;;1.20;99.90;;;;;;5044805;28;20469;-78
2021/12/03 03:00:27;;;;;;;8.20;5.13;;;1.20;99.90;;;;;;5044218;28;20035;-78
2021/12/03 03:02:54;;;;;;;6.68;5.68;;;1.10;99.90;;;;;;5061647;28;20104;-79
2021/12/03 03:05:22;;;;;;;5.85;5.13;;;1.10;99.90;;;;;;5062422;28;20032;-80
2021/12/03 03:07:48;;;;;;;7.20;5.43;;;1.10;99.90;;;;;;5044170;28;20108;-79
2021/12/03 03:10:18;;;;;;;6.78;5.40;;;1.00;99.90;;;;;;5062966;28;20029;-79
2021/12/03 03:12:44;;;;;;;6.65;5.78;;;1.00;99.90;;;;;;5066420;28;20085;-78
2021/12/03 03:15:11;;;;;;;7.45;5.10;;;1.10;99.90;;;;;;5076114;28;20020;-78
2021/12/03 03:17:39;;;;;;;6.18;5.22;;;1.00;99.90;;;;;;5051651;28;20594;-79
2021/12/03 03:20:08;;;;;;;12.70;5.93;;;1.00;99.90;;;;;;5068883;28;20025;-78
2021/12/03 03:22:35;;;;;;;6.25;5.57;;;1.00;99.90;;;;;;5069560;28;20025;-79
2021/12/03 03:25:01;;;;;;;7.38;5.10;;;1.00;99.90;;;;;;5073295;28;20017;-79
2021/12/03 03:27:29;;;;;;;7.15;5.05;;;1.10;99.90;;;;;;5068592;28;20037;-78
2021/12/03 03:29:55;;;;;;;6.07;4.80;;;1.10;99.90;;;;;;5043775;28;20028;-78
2021/12/03 03:32:22;;;;;;;7.38;4.68;;;1.10;99.90;;;;;;5060847;28;20025;-80
2021/12/03 03:34:48;;;;;;;6.10;4.47;;;1.20;99.90;;;;;;5062422;28;20024;-79
2021/12/03 03:37:14;;;;;;;6.53;4.68;;;1.20;99.90;;;;;;5062550;28;20025;-79
2021/12/03 03:39:40;;;;;;;8.35;4.90;;;1.30;99.90;;;;;;5061134;28;20028;-78
2021/12/03 03:42:07;;;;;;;8.02;4.97;;;1.30;99.90;;;;;;5059642;28;20025;-78
2021/12/03 03:44:33;;;;;;;5.22;4.07;;;1.40;99.90;;;;;;5045311;28;20032;-78
2021/12/03 03:47:00;;;;;;;9.63;4.28;;;1.40;99.90;;;;;;5065869;28;20021;-77
2021/12/03 03:49:26;;;;;;;5.35;4.63;;;1.40;99.90;;;;;;5058538;28;20559;-78
2021/12/03 03:51:52;;;;;;;7.47;4.93;;;1.40;99.90;;;;;;5061211;28;20060;-78
2021/12/03 03:54:18;;;;;;;4.90;4.05;;;1.50;99.90;;;;;;5061871;28;20029;-78
2021/12/03 03:56:45;;;;;;;5.97;3.90;;;1.50;99.90;;;;;;5061187;28;20024;-79
2021/12/03 03:59:11;;;;;;;8.23;4.97;;;1.60;99.90;;;;;;5059386;28;20025;-77
2021/12/03 04:01:37;;;;;;;4.70;4.30;;;1.60;99.90;;;;;;5062429;28;20024;-79
2021/12/03 04:04:03;;;;;;;5.30;4.78;;;1.60;99.90;;;;;;5059703;28;20081;-78
2021/12/03 04:06:28;;;;;;;5.43;4.88;;;1.60;99.90;;;;;;5062775;28;20029;-78
2021/12/03 04:08:54;;;;;;;6.30;4.72;;;1.70;99.90;;;;;;5061051;28;20032;-79
2021/12/03 04:11:22;;;;;;;5.53;4.88;;;1.60;99.90;;;;;;5060182;28;20040;-79
2021/12/03 04:13:48;;;;;;;5.70;4.60;;;1.70;99.90;;;;;;5044415;28;20027;-78
2021/12/03 04:16:15;;;;;;;5.65;4.40;;;1.70;99.90;;;;;;5064684;28;20171;-79
2021/12/03 04:18:41;;;;;;;5.65;4.57;;;1.70;99.90;;;;;;5068372;28;20025;-78
2021/12/03 04:21:07;;;;;;;4.93;4.28;;;1.70;99.90;;;;;;5074069;28;20085;-79
2021/12/03 04:23:33;;;;;;;8.52;6.63;;;1.80;99.90;;;;;;5053035;28;20032;-77
2021/12/03 04:25:58;;;;;;;7.00;4.68;;;1.80;99.90;;;;;;5068364;28;20029;-78
2021/12/03 04:28:24;;;;;;;6.82;5.63;;;1.80;99.90;;;;;;5062643;23;20046;-74
2021/12/03 04:30:50;;;;;;;5.55;4.95;;;1.80;99.90;;;;;;5031616;28;20017;-73
2021/12/03 04:33:18;;;;;;;6.10;4.88;;;1.80;99.90;;;;;;5032458;28;20580;-73
2021/12/03 04:35:44;;;;;;;8.15;5.57;;;1.90;99.90;;;;;;5031985;28;20121;-74
2021/12/03 04:38:10;;;;;;;8.15;5.72;;;1.90;99.90;;;;;;5032376;28;20049;-73
2021/12/03 04:40:37;;;;;;;6.43;5.78;;;1.90;99.90;;;;;;5032241;28;20084;-73
2021/12/03 04:43:04;;;;;;;6.60;5.95;;;1.80;99.90;;;;;;5033226;28;20053;-74
2021/12/03 04:45:30;;;;;;;5.28;4.78;;;1.80;99.90;;;;;;5031844;28;20400;-73
2021/12/03 04:47:58;;;;;;;6.53;5.93;;;1.90;99.90;;;;;;5052153;28;20056;-73
2021/12/03 04:50:27;;;;;;;6.45;5.32;;;1.80;99.90;;;;;;5050938;28;20055;-73
2021/12/03 04:52:53;;;;;;;6.47;5.68;;;1.80;99.90;;;;;;5055143;28;20037;-74
2021/12/03 04:55:21;;;;;;;7.38;5.40;;;1.80;99.90;;;;;;5052131;28;20112;-74
2021/12/03 04:57:49;;;;;;;7.95;4.72;;;1.80;99.90;;;;;;5039646;28;20032;-74
2021/12/03 05:00:19;;;;;;;5.20;4.70;;;1.80;99.90;;;;;;5039212;28;20104;-74
2021/12/03 05:02:46;;;;;;;6.32;4.18;;;1.80;99.90;;;;;;5037584;28;20384;-73
2021/12/03 05:05:12;;;;;;;5.82;5.30;;;1.80;99.90;;;;;;5037790;28;20395;-73
2021/12/03 05:10:03;;;;;;;5.82;5.03;;;1.80;99.90;;;;;;5036756;28;20469;-74
2021/12/03 05:12:29;;;;;;;5.20;4.70;;;1.90;99.90;;;;;;5036267;28;20025;-74
2021/12/03 05:14:54;;;;;;;7.63;6.28;;;1.80;99.90;;;;;;5036442;28;20470;-74
2021/12/03 05:17:20;;;;;;;7.75;5.30;;;1.90;99.90;;;;;;5036494;28;20017;-73
2021/12/03 05:19:46;;;;;;;6.65;5.57;;;1.90;99.90;;;;;;5035803;28;20029;-73
2021/12/03 05:22:13;;;;;;;6.78;5.85;;;1.90;99.90;;;;;;5036392;28;20033;-73
2021/12/03 05:24:38;;;;;;;7.50;6.65;;;1.90;99.90;;;;;;5036137;28;20397;-73
2021/12/03 05:27:04;;;;;;;7.85;5.97;;;1.90;99.90;;;;;;5036415;28;20022;-74
2021/12/03 05:29:30;;;;;;;7.68;5.93;;;1.90;99.90;;;;;;5035676;28;20041;-74
2021/12/03 05:31:55;;;;;;;7.53;6.65;;;1.90;99.90;;;;;;5036367;28;20112;-73
2021/12/03 05:34:22;;;;;;;7.63;5.68;;;1.90;99.90;;;;;;5035975;28;20057;-73
2021/12/03 05:36:47;;;;;;;7.28;6.57;;;1.90;99.90;;;;;;5035739;28;20025;-73
2021/12/03 05:39:14;;;;;;;5.93;5.32;;;1.90;99.90;;;;;;5035394;28;20068;-74
2021/12/03 05:41:40;;;;;;;6.63;5.93;;;1.90;99.90;;;;;;5035599;28;20025;-74
2021/12/03 05:44:05;;;;;;;6.13;5.53;;;1.90;99.90;;;;;;5035344;28;20021;-73
2021/12/03 05:46:31;;;;;;;10.32;6.65;;;1.90;99.90;;;;;;5035613;28;20572;-73
2021/12/03 05:48:57;;;;;;;7.18;6.47;;;1.90;99.90;;;;;;5042483;28;20021;-73
2021/12/03 05:51:25;;;;;;;6.45;5.85;;;1.90;99.90;;;;;;5039898;28;20397;-74
2021/12/03 05:53:51;;;;;;;5.93;5.35;;;1.90;99.90;;;;;;5036663;28;20025;-75
2021/12/03 05:56:16;;;;;;;6.75;5.88;;;1.80;99.90;;;;;;5035209;28;20083;-74
2021/12/03 05:58:42;;;;;;;6.18;5.57;;;1.90;99.90;;;;;;5034818;28;20022;-74
2021/12/03 06:01:08;;;;;;;6.22;5.18;;;1.90;99.90;;;;;;5034517;28;20053;-74
2021/12/03 06:03:33;;;;;;;7.00;5.78;;;1.80;99.90;;;;;;5035503;28;20018;-74
2021/12/03 06:05:59;;;;;;;6.10;5.50;;;1.80;99.90;;;;;;5035397;28;20036;-74
2021/12/03 06:08:24;;;;;;;6.55;5.57;;;1.80;99.90;;;;;;5033583;28;20059;-73
2021/12/03 06:10:50;;;;;;;5.85;5.35;;;1.80;99.90;;;;;;5035016;28;20029;-73
2021/12/03 06:13:15;;;;;;;5.78;5.28;;;1.90;99.90;;;;;;5033784;28;20029;-74
2021/12/03 06:15:41;;;;;;;5.88;5.28;;;1.90;99.90;;;;;;5034729;28;20400;-74
2021/12/03 06:18:07;;;;;;;6.80;5.15;;;1.90;99.90;;;;;;5034409;28;20342;-74
2021/12/03 06:20:32;;;;;;;5.93;4.97;;;1.90;99.90;;;;;;5034862;28;20516;-73
2021/12/03 06:22:58;;;;;;;5.90;5.30;;;1.80;99.90;;;;;;5035500;28;20033;-75
2021/12/03 06:25:24;;;;;;;5.82;5.28;;;1.80;99.90;;;;;;5034569;28;20108;-73
2021/12/03 06:27:50;;;;;;;7.28;4.93;;;1.80;99.90;;;;;;5034454;28;20029;-73
2021/12/03 06:30:19;;;;;;;6.15;5.55;;;1.80;99.90;;;;;;5034236;28;20109;-74
2021/12/03 06:32:46;;;;;;;5.25;4.75;;;1.80;99.90;;;;;;5039553;28;20040;-73
2021/12/03 06:35:14;;;;;;;5.80;5.20;;;1.70;99.90;;;;;;5051076;28;20049;-73
2021/12/03 06:37:40;;;;;;;5.50;5.00;;;1.70;99.90;;;;;;5041991;28;20022;-74
2021/12/03 06:40:10;;;;;;;5.80;5.22;;;1.60;99.90;;;;;;5034861;28;20477;-75
2021/12/03 06:42:35;;;;;;;6.75;6.10;;;1.50;99.90;;;;;;5033420;28;20032;-74
2021/12/03 06:45:05;;;;;;;7.20;5.65;;;1.40;99.90;;;;;;5039175;28;20029;-73
2021/12/03 06:47:31;;;;;;;5.95;4.97;;;1.40;99.90;;;;;;5037916;28;20018;-74
2021/12/03 06:49:57;;;;;;;5.55;5.00;;;1.40;99.90;;;;;;5038213;28;20024;-73
2021/12/03 06:52:23;;;;;;;7.18;5.63;;;1.40;99.90;;;;;;5035549;28;20022;-74
2021/12/03 06:54:55;;;;;;;6.10;5.50;;;1.30;99.90;;;;;;5034050;28;20113;-73
2021/12/03 06:57:21;;;;;;;5.65;5.13;;;1.20;99.90;;;;;;5034425;28;20040;-74
2021/12/03 06:59:46;;;;;;;6.15;5.47;;;1.20;99.90;;;;;;5033970;28;20025;-74
2021/12/03 07:02:13;;;;;;;6.10;5.07;;;1.20;99.90;;;;;;5034296;28;20030;-74
2021/12/03 07:04:40;;;;;;;7.43;5.30;;;1.20;99.90;;;;;;5034574;28;20026;-73
2021/12/03 07:07:05;;;;;;;7.03;5.47;;;1.20;99.90;;;;;;5033783;28;20083;-74
2021/12/03 07:09:31;;;;;;;9.50;7.10;;;1.10;99.90;;;;;;5032303;28;20025;-73
2021/12/03 07:11:56;;;;;;;8.40;6.13;;;1.10;99.90;;;;;;5033573;28;20022;-74
2021/12/03 07:14:22;;;;;;;5.47;4.82;;;1.10;99.90;;;;;;5035530;28;20025;-73
2021/12/03 07:16:47;;;;;;;6.18;5.03;;;1.10;99.90;;;;;;5033372;28;20493;-75
2021/12/03 07:19:13;;;;;;;6.22;5.20;;;1.10;99.90;;;;;;5033364;28;20013;-74
2021/12/03 07:21:40;;;;;;;5.40;4.82;;;1.10;99.90;;;;;;5035464;28;20022;-74
2021/12/03 07:24:06;;;;;;;4.97;4.47;;;1.00;99.90;;;;;;5032710;28;20025;-74
2021/12/03 07:26:32;;;;;;;6.15;5.43;;;1.00;99.90;;;;;;5034548;28;20067;-75
2021/12/03 07:28:58;;;;;;;7.25;5.50;;;1.00;99.90;;;;;;5038631;28;20037;-73
2021/12/03 07:31:24;;;;;;;5.68;4.53;;;0.90;99.90;;;;;;5041016;28;20083;-72
2021/12/03 07:33:51;;;;;;;7.10;5.10;;;0.90;99.90;;;;;;5033446;28;20474;-74
2021/12/03 07:36:16;;;;;;;6.68;4.90;;;0.90;99.90;;;;;;5032019;28;20434;-74
2021/12/03 07:38:42;;;;;;;6.95;5.25;;;0.90;99.90;;;;;;5038323;28;20038;-74
2021/12/03 07:41:08;;;;;;;7.18;5.63;;;0.90;99.90;;;;;;5054672;28;20048;-72
2021/12/03 07:43:33;;;;;;;7.15;5.15;;;0.90;99.90;;;;;;5051907;28;20045;-73
2021/12/03 07:46:00;;;;;;;7.28;5.20;;;0.90;99.90;;;;;;5057223;28;20032;-74
2021/12/03 07:48:25;;;;;;;6.07;5.43;;;0.90;99.90;;;;;;5046944;28;20041;-73
2021/12/03 07:50:52;;;;;;;7.82;5.43;;;0.90;99.90;;;;;;5033987;28;20026;-73
2021/12/03 07:53:18;;;;;;;7.28;5.40;;;1.00;99.90;;;;;;5034061;28;20029;-74
2021/12/03 07:55:49;;;;;;;6.63;4.47;;;1.00;99.90;;;;;;5033551;28;20428;-74
2021/12/03 07:58:16;;;;;;;6.95;5.18;;;1.10;99.90;;;;;;5034056;28;20021;-74
2021/12/03 08:00:43;;;;;;;6.35;4.90;;;1.30;99.90;;;;;;5033177;28;20061;-73
2021/12/03 08:03:08;;;;;;;5.25;4.60;;;1.40;99.90;;;;;;5031996;28;20048;-73
2021/12/03 08:05:34;;;;;;;5.80;4.80;;;1.60;99.90;;;;;;5031906;28;20021;-75
2021/12/03 08:08:00;;;;;;;6.88;4.30;;;1.70;99.90;;;;;;5033612;28;20033;-73
2021/12/03 08:10:26;;;;;;;5.80;5.30;;;1.80;99.90;;;;;;5036207;28;20091;-74
2021/12/03 08:12:51;;;;;;;5.47;4.40;;;1.90;99.90;;;;;;5035655;28;20029;-73
2021/12/03 08:15:17;;;;;;;5.90;4.28;;;2.00;99.90;;;;;;5035604;28;20067;-72
2021/12/03 08:17:47;;;;;;;4.88;4.32;;;2.10;99.90;;;;;;5033929;28;20029;-73
2021/12/03 08:20:12;;;;;;;4.65;3.90;;;2.10;99.90;;;;;;5034430;28;20021;-74
2021/12/03 08:22:38;;;;;;;6.80;5.00;;;2.10;99.90;;;;;;5033435;28;20018;-74
2021/12/03 08:25:04;;;;;;;8.00;3.95;;;2.00;99.90;;;;;;5033162;28;20021;-74
2021/12/03 08:27:30;;;;;;;4.60;3.80;;;2.00;99.90;;;;;;5033364;28;20025;-74
2021/12/03 08:29:55;;;;;;;7.65;3.95;;;2.00;99.90;;;;;;5034657;28;20030;-73
2021/12/03 08:32:21;;;;;;;7.32;4.43;;;1.90;99.90;;;;;;5034606;28;20029;-74
2021/12/03 08:34:47;;;;;;;5.38;3.83;;;1.90;99.90;;;;;;5033531;28;20036;-74
2021/12/03 08:37:12;;;;;;;4.88;4.28;;;1.90;99.90;;;;;;5033753;28;20057;-74
2021/12/03 08:39:38;;;;;;;6.88;4.47;;;1.90;99.90;;;;;;5033349;28;20026;-75
2021/12/03 08:42:06;;;;;;;6.05;4.05;;;1.90;99.90;;;;;;5033702;28;20017;-74
2021/12/03 08:44:32;;;;;;;5.32;3.70;;;1.90;99.90;;;;;;5033201;28;20036;-76
2021/12/03 08:46:59;;;;;;;6.75;4.10;;;1.90;99.90;;;;;;5035164;28;20469;-75
2021/12/03 08:50:00;;;;;;;4.93;4.45;;;1.90;99.90;;;;;;5038679;28;20041;-73
2021/12/03 08:54:49;;;;;;;6.22;3.92;;;2.00;99.90;;;;;;5035260;28;20033;-75
2021/12/03 08:57:17;;;;;;;4.25;3.85;;;2.10;99.90;;;;;;5033908;28;20389;-73
2021/12/03 08:59:43;;;;;;;4.38;3.97;;;2.20;99.90;;;;;;5033034;28;20026;-73
2021/12/03 09:02:10;;;;;;;5.45;4.53;;;2.20;99.90;;;;;;5032471;28;20480;-72
2021/12/03 09:04:35;;;;;;;8.57;5.50;;;2.30;99.90;;;;;;5031607;28;20404;-75
2021/12/03 09:07:01;;;;;;;4.78;3.75;;;2.30;99.90;;;;;;5033082;28;20132;-74
2021/12/03 09:09:27;;;;;;;4.18;3.80;;;2.40;99.90;;;;;;5033570;28;20029;-75
2021/12/03 09:11:54;;;;;;;6.20;3.90;;;2.50;99.90;;;;;;5033061;28;20485;-74
2021/12/03 09:16:50;;;;;;;8.48;6.15;;;2.60;99.90;;;;;;5040206;28;20049;-74
2021/12/03 09:19:24;;;;;;;4.63;3.90;;;2.60;99.90;;;;;;5032719;28;20024;-75
2021/12/03 09:21:50;;;;;;;4.40;3.70;;;2.70;99.90;;;;;;5031285;28;20018;-75
2021/12/03 09:24:18;;;;;;;7.13;3.35;;;2.70;99.90;;;;;;5031344;28;20074;-73
2021/12/03 09:26:44;;;;;;;3.45;2.90;;;2.80;99.90;;;;;;5033046;28;20033;-73
2021/12/03 09:29:13;;;;;;;3.60;2.50;;;2.90;99.90;;;;;;5032269;28;20116;-74
2021/12/03 09:31:42;;;;;;;2.88;2.10;;;2.90;99.90;;;;;;5032455;28;20497;-75
2021/12/03 09:34:10;;;;;;;2.67;2.20;;;3.00;99.90;;;;;;5032602;28;20145;-75
2021/12/03 09:36:40;;;;;;;3.85;2.13;;;3.00;99.90;;;;;;5032937;28;20037;-74
2021/12/03 09:39:09;;;;;;;5.95;2.80;;;3.10;99.90;;;;;;5033633;28;20021;-74
2021/12/03 09:41:35;;;;;;;3.28;2.85;;;3.20;99.90;;;;;;5036467;28;20440;-73
2021/12/03 09:44:00;;;;;;;2.92;2.33;;;3.30;99.90;;;;;;5034857;28;20028;-74
2021/12/03 09:46:27;;;;;;;2.67;2.20;;;3.30;99.90;;;;;;5036091;28;20037;-74
2021/12/03 09:49:21;;;;;;;1.98;1.73;;;3.20;99.90;;;;;;5034849;28;20467;-74
2021/12/03 09:56:41;;;;;;;2.72;1.95;;;3.20;99.90;;;;;;5042553;28;20025;-75
2021/12/03 10:04:44;;;;;;;3.45;2.63;;;3.30;99.90;;;;;;5036278;28;20033;-74
2021/12/03 10:15:16;;;;;;;3.72;2.15;;;3.80;99.90;;;;;;5035480;28;20029;-74
2021/12/03 10:24:10;;;;;;;3.28;1.80;;;4.00;99.90;;;;;;5035845;28;20028;-74
2021/12/03 10:35:04;;;;;;;4.85;2.75;;;4.00;99.90;;;;;;5057509;28;20060;-73
2021/12/03 10:38:03;;;;;;;2.95;2.30;;;4.20;99.90;;;;;;5056728;28;20028;-74
2021/12/03 10:41:03;;;;;;;3.60;2.92;;;4.40;99.90;;;;;;5035189;28;20021;-72
2021/12/03 10:46:18;;;;;;;4.05;2.42;;;4.10;99.90;;;;;;5042143;28;20033;-73
2021/12/03 10:48:56;;;;;;;3.17;2.33;;;4.00;99.90;;;;;;5045116;28;20489;-74
2021/12/03 10:57:11;;;;;;;3.55;2.75;;;4.10;99.90;;;;;;5037780;28;20075;-73
2021/12/03 10:59:52;;;;;;;3.55;2.22;;;4.10;99.90;;;;;;5037010;28;20028;-73
2021/12/03 11:33:43;;;;;;;7.47;2.90;;;4.50;99.90;;;;;;5036447;28;20369;-75
2021/12/03 11:43:14;;;;;;;4.55;2.85;;;4.50;99.90;;;;;;5037216;28;20531;-74
2021/12/03 12:15:28;;;;;;;5.28;2.83;;;4.80;99.90;;;;;;5034172;28;20036;-74
2021/12/03 12:27:10;;;;;;;2.45;2.10;;;4.70;99.90;;;;;;5037985;28;20500;-74
2021/12/03 13:03:41;;;;;;;2.00;1.83;;;4.50;99.90;;;;;;5026370;28;20401;-76
2021/12/03 13:25:09;;;;;;;4.68;2.13;;;4.40;99.90;;;;;;5044874;28;20504;-73
2021/12/03 14:08:32;;;;;;;2.22;1.45;;;4.30;99.90;;;;;;5037140;28;20029;-72
2021/12/03 14:11:46;;;;;;;2.40;1.63;;;4.40;99.90;;;;;;5036340;28;20092;-74
2021/12/03 14:20:25;;;;;;;2.75;1.60;;;4.40;99.90;;;;;;5036048;28;20532;-72
2021/12/03 14:26:55;;;;;;;3.05;1.60;;;4.30;99.90;;;;;;5036524;28;20508;-74
2021/12/03 14:46:57;;;;;;;5.32;1.70;;;4.20;99.90;;;;;;5034990;28;20401;-74
2021/12/03 14:52:07;;;;;;;4.55;2.42;;;4.00;99.90;;;;;;5035269;28;20072;-73
2021/12/03 14:54:47;;;;;;;3.83;2.35;;;3.90;99.90;;;;;;5033666;28;20029;-74
2021/12/03 14:57:17;;;;;;;3.45;2.22;;;3.90;99.90;;;;;;5034993;28;20096;-73
2021/12/03 15:00:06;;;;;;;6.63;2.58;;;3.90;99.90;;;;;;5034856;28;20040;-75
2021/12/03 15:02:43;;;;;;;2.50;1.92;;;3.90;99.90;;;;;;5034594;28;20018;-74
2021/12/03 15:05:20;;;;;;;4.70;2.22;;;3.80;99.90;;;;;;5033068;28;20066;-73
2021/12/03 15:07:50;;;;;;;3.90;2.30;;;3.80;99.90;;;;;;5034802;28;20033;-73
2021/12/03 15:10:36;;;;;;;1.67;1.58;;;3.90;99.90;;;;;;5034804;28;20021;-73
2021/12/03 15:24:32;;;;;;;3.83;2.10;;;3.50;99.90;;;;;;5034413;28;20022;-74
2021/12/03 15:32:09;;;;;;;4.53;2.50;;;3.20;99.90;;;;;;5034168;28;20055;-74
2021/12/03 15:34:58;;;;;;;3.75;2.75;;;3.20;99.90;;;;;;5033510;28;20116;-74
2021/12/03 16:12:11;;;;;;;3.92;2.25;;;2.90;99.90;;;;;;5051721;28;20287;-73
2021/12/03 16:22:44;;;;;;;5.80;2.75;;;3.00;99.90;;;;;;5038397;28;20105;-75
2021/12/03 16:44:18;;;;;;;8.38;4.35;;;3.00;99.90;;;;;;5037862;28;20028;-73
2021/12/03 16:51:54;;;;;;;6.85;2.90;;;2.90;99.90;;;;;;5043279;28;20034;-73
2021/12/03 16:54:33;;;;;;;4.38;3.25;;;3.00;99.90;;;;;;5046092;28;20040;-73
2021/12/03 16:56:59;;;;;;;3.85;3.05;;;3.00;99.90;;;;;;5042542;28;20071;-72
2021/12/03 16:59:25;;;;;;;6.22;3.50;;;3.00;99.90;;;;;;5040752;28;20072;-73
2021/12/03 17:02:05;;;;;;;11.75;4.40;;;3.10;99.90;;;;;;5039835;28;20025;-74
2021/12/03 17:15:04;;;;;;;5.25;2.70;;;3.50;99.90;;;;;;5038406;28;20113;-74
2021/12/03 17:47:09;;;;;;;3.78;2.47;;;3.40;99.90;;;;;;5041042;28;20448;-74
2021/12/03 17:59:50;;;;;;;5.50;3.80;;;3.40;99.90;;;;;;5035811;28;20021;-74
2021/12/03 18:04:59;;;;;;;5.47;2.63;;;3.40;99.90;;;;;;5037105;28;20485;-75
2021/12/03 18:48:33;;;;;;;2.97;2.30;;;3.50;99.90;;;;;;5036566;28;20389;-73
2021/12/03 18:56:29;;;;;;;9.63;3.28;;;3.50;99.90;;;;;;5036860;28;20501;-73
2021/12/03 18:58:57;;;;;;;3.92;3.25;;;3.50;99.90;;;;;;5036630;28;20021;-73
2021/12/03 19:01:28;;;;;;;4.97;2.85;;;3.60;99.90;;;;;;5035659;28;20032;-74
2021/12/03 19:04:12;;;;;;;4.85;3.33;;;3.50;99.90;;;;;;5037191;28;20067;-74
2021/12/03 19:09:11;;;;;;;6.85;3.38;;;3.50;99.90;;;;;;5037553;28;20048;-73
2021/12/03 19:11:41;;;;;;;7.28;3.22;;;3.60;99.90;;;;;;5037834;28;20496;-74
2021/12/03 19:14:07;;;;;;;4.97;3.28;;;3.60;99.90;;;;;;5044308;28;20051;-74
2021/12/03 19:16:34;;;;;;;5.93;3.50;;;3.50;99.90;;;;;;5039416;28;20091;-73
2021/12/03 19:19:03;;;;;;;5.80;3.47;;;3.60;99.90;;;;;;5034645;28;20017;-73
2021/12/03 19:21:33;;;;;;;3.30;2.63;;;3.60;99.90;;;;;;5036127;28;20030;-74
2021/12/03 19:24:01;;;;;;;5.45;3.28;;;3.60;99.90;;;;;;5035584;28;20040;-74
2021/12/03 19:26:29;;;;;;;3.65;2.97;;;3.50;99.90;;;;;;5036232;28;20030;-73
2021/12/03 19:28:56;;;;;;;4.40;3.33;;;3.50;99.90;;;;;;5045125;28;20098;-74
2021/12/03 19:31:24;;;;;;;5.93;2.53;;;3.60;99.90;;;;;;5056635;28;20034;-72
2021/12/03 19:33:50;;;;;;;5.10;3.03;;;3.50;99.90;;;;;;5055742;28;20025;-73
2021/12/03 19:36:21;;;;;;;3.33;2.70;;;3.60;99.90;;;;;;5055331;28;20077;-72
2021/12/03 19:38:53;;;;;;;2.83;2.33;;;3.60;99.90;;;;;;5045634;28;20022;-74
2021/12/03 19:41:29;;;;;;;3.85;3.40;;;3.60;99.90;;;;;;5041001;28;20018;-74
2021/12/03 19:43:57;;;;;;;4.25;3.58;;;3.60;99.90;;;;;;5035646;28;20411;-74
2021/12/03 19:46:38;;;;;;;4.13;3.15;;;3.70;99.90;;;;;;5033863;28;20028;-73
2021/12/03 19:51:53;;;;;;;4.97;3.10;;;3.70;99.90;;;;;;5014371;28;19912;-74
2021/12/03 19:54:20;;;;;;;8.68;5.45;;;3.70;99.90;;;;;;5035556;28;20025;-75
2021/12/03 19:56:46;;;;;;;5.68;4.60;;;3.70;99.90;;;;;;5034692;28;20021;-74
2021/12/03 19:59:13;;;;;;;6.63;3.83;;;3.70;99.90;;;;;;5033692;28;20025;-73
2021/12/03 20:01:39;;;;;;;6.65;3.90;;;3.70;99.90;;;;;;5033868;28;20108;-74
2021/12/03 20:04:07;;;;;;;3.80;3.38;;;3.70;99.90;;;;;;5033853;28;20420;-74
2021/12/03 20:06:33;;;;;;;6.55;3.60;;;3.70;99.90;;;;;;5034088;28;20025;-75
2021/12/03 20:09:02;;;;;;;3.50;2.47;;;3.70;99.90;;;;;;5034311;28;20018;-75
2021/12/03 20:11:44;;;;;;;6.97;3.42;;;3.80;99.90;;;;;;5034715;28;20017;-75
2021/12/03 20:14:16;;;;;;;5.80;3.88;;;3.80;99.90;;;;;;5036395;28;20026;-77
2021/12/03 20:21:56;;;;;;;7.47;3.83;;;3.80;99.90;;;;;;5033868;28;20401;-75
2021/12/03 20:24:50;;;;;;;4.15;3.58;;;3.80;99.90;;;;;;5034302;28;20033;-74
2021/12/03 20:27:18;;;;;;;6.00;3.55;;;3.80;99.90;;;;;;5034369;28;20104;-73